Terminal Aerodrome Forecast
Issued by NWS Sterling, VA

Current Version | Previous Version | Graphics & Text | Print | Product List | Glossary On
Versions: 1 2 3 4 5 6 7 8 9 10 11 12 13 14 15 16 17 18 19 20 21 22 23 24 25 26 27 28 29
000
FTUS41 KLWX 050822 AAA
TAFDCA
TAF AMD
KDCA 050822Z 0508/0606 20007KT P6SM SCT120
     FM051300 VRB05KT P6SM BKN100
     FM052000 22006KT 6SM -SHRA VCTS BKN050CB
     FM060200 VRB03KT P6SM VCSH BKN080=

USA.gov is the U.S. government's official web portal to all federal, state and local government web resources and services.